Terminal Aerodrome Forecast
Issued by NWS

Home | Current Version | Previous Version | Text Only | Print | Product List | Glossary On
Versions: 1 2 3 4 5 6 7 8 9 10 11 12 13 14 15 16 17 18 19 20
000
FTUS43 KICT 171736
TAFRSL
TAF
KRSL 171736Z 1718/1818 10013KT P6SM SCT009 OVC012
     FM180200 09009KT 4SM -SN OVC007
     FM180500 09008KT 1SM -SN OVC007
     FM181100 09008KT 5SM -SN OVC009=

USA.gov is the U.S. government's official web portal to all federal, state and local government web resources and services.